Time,TemperatureF,DewpointF,PressureIn,WindDirection,WindDirectionDegrees,WindSpeedMPH,WindSpeedGustMPH,Humidity,HourlyPrecipIn,Conditions,Clouds,dailyrainin,SoftwareType,DateUTC
2013-01-27 00:02:00,39.4,38.1,30.14,East,90,2.0,6.0,95,0.00,,,0.00,Wunderground v.1.15,2013-01-27 08:02:00,
2013-01-27 00:07:00,39.4,38.1,30.15,East,90,0.0,6.0,95,0.00,,,0.00,Wunderground v.1.15,2013-01-27 08:07:00,
2013-01-27 00:13:00,39.4,38.1,30.15,East,90,2.0,5.0,95,0.00,,,0.00,Wunderground v.1.15,2013-01-27 08:13:00,
2013-01-27 00:19:00,39.3,38.0,30.15,East,90,3.0,6.0,95,0.00,,,0.00,Wunderground v.1.15,2013-01-27 08:19:00,
2013-01-27 00:24:00,39.3,38.0,30.15,East,90,3.0,5.0,95,0.00,,,0.01,Wunderground v.1.15,2013-01-27 08:24:00,
2013-01-27 00:30:00,39.3,38.0,30.15,East,90,1.0,1.0,95,0.00,,,0.01,Wunderground v.1.15,2013-01-27 08:30:00,
2013-01-27 00:36:00,39.2,37.9,30.14,East,90,1.0,6.0,95,0.00,,,0.01,Wunderground v.1.15,2013-01-27 08:36:00,
2013-01-27 00:42:00,39.0,37.7,30.14,East,90,3.0,3.0,95,0.00,,,0.01,Wunderground v.1.15,2013-01-27 08:42:00,
2013-01-27 00:47:00,38.8,37.5,30.14,East,90,3.0,5.0,95,0.00,,,0.01,Wunderground v.1.15,2013-01-27 08:47:00,
2013-01-27 00:53:00,38.7,37.4,30.14,East,90,3.0,3.0,95,0.00,,,0.01,Wunderground v.1.15,2013-01-27 08:53:00,
2013-01-27 00:58:00,38.6,37.3,30.14,East,90,2.0,3.0,95,0.00,,,0.01,Wunderground v.1.15,2013-01-27 08:58:00,
2013-01-27 01:04:00,38.6,37.3,30.14,East,90,2.0,8.0,95,0.00,,,0.01,Wunderground v.1.15,2013-01-27 09:04:00,
2013-01-27 01:10:00,38.6,37.6,30.14,East,90,2.0,2.0,96,0.00,,,0.01,Wunderground v.1.15,2013-01-27 09:10:00,
2013-01-27 01:15:00,38.6,37.6,30.15,East,90,1.0,8.0,96,0.00,,,0.01,Wunderground v.1.15,2013-01-27 09:15:00,
2013-01-27 01:20:00,38.6,37.6,30.15,East,90,1.0,1.0,96,0.00,,,0.01,Wunderground v.1.15,2013-01-27 09:20:00,
2013-01-27 01:25:00,38.6,37.6,30.15,East,90,1.0,8.0,96,0.00,,,0.01,Wunderground v.1.15,2013-01-27 09:25:00,
2013-01-27 01:31:00,38.6,37.6,30.15,East,90,1.0,8.0,96,0.00,,,0.02,Wunderground v.1.15,2013-01-27 09:31:00,
2013-01-27 01:36:00,38.7,37.7,30.15,East,90,1.0,8.0,96,0.13,,,0.03,Wunderground v.1.15,2013-01-27 09:36:00,
2013-01-27 01:42:00,38.7,37.7,30.15,East,90,1.0,8.0,96,0.06,,,0.03,Wunderground v.1.15,2013-01-27 09:42:00,
2013-01-27 01:48:00,38.8,37.8,30.15,East,90,1.0,8.0,96,0.00,,,0.03,Wunderground v.1.15,2013-01-27 09:48:00,
2013-01-27 01:54:00,38.8,37.8,30.16,East,90,0.0,8.0,96,0.26,,,0.05,Wunderground v.1.15,2013-01-27 09:54:00,
2013-01-27 02:00:00,38.9,37.9,30.16,East,90,1.0,8.0,96,0.10,,,0.06,Wunderground v.1.15,2013-01-27 10:00:00,
2013-01-27 02:05:00,39.0,38.0,30.16,East,90,1.0,8.0,96,0.05,,,0.06,Wunderground v.1.15,2013-01-27 10:05:00,
2013-01-27 02:11:00,38.9,37.9,30.16,East,90,1.0,8.0,96,0.04,,,0.06,Wunderground v.1.15,2013-01-27 10:11:00,
2013-01-27 02:16:00,38.8,37.8,30.16,East,90,2.0,8.0,96,0.00,,,0.06,Wunderground v.1.15,2013-01-27 10:16:00,
2013-01-27 02:22:00,38.7,37.7,30.16,East,90,2.0,8.0,96,0.00,,,0.06,Wunderground v.1.15,2013-01-27 10:22:00,
2013-01-27 02:27:00,38.7,37.7,30.16,East,90,1.0,8.0,96,0.00,,,0.06,Wunderground v.1.15,2013-01-27 10:27:00,
2013-01-27 02:32:00,38.7,37.7,30.16,East,90,1.0,8.0,96,0.00,,,0.06,Wunderground v.1.15,2013-01-27 10:32:00,
2013-01-27 02:38:00,38.6,37.6,30.16,East,90,2.0,8.0,96,0.00,,,0.06,Wunderground v.1.15,2013-01-27 10:38:00,
2013-01-27 02:43:00,38.6,37.6,30.16,East,90,3.0,8.0,96,0.00,,,0.06,Wunderground v.1.15,2013-01-27 10:43:00,
2013-01-27 02:49:00,38.5,37.5,30.16,East,90,3.0,8.0,96,0.00,,,0.06,Wunderground v.1.15,2013-01-27 10:49:00,
2013-01-27 02:55:00,38.5,37.5,30.17,East,90,1.0,8.0,96,0.00,,,0.06,Wunderground v.1.15,2013-01-27 10:55:00,
2013-01-27 03:01:00,38.5,37.5,30.16,East,90,1.0,8.0,96,0.00,,,0.07,Wunderground v.1.15,2013-01-27 11:01:00,
2013-01-27 03:06:00,38.5,37.5,30.16,East,90,2.0,8.0,96,0.00,,,0.07,Wunderground v.1.15,2013-01-27 11:06:00,
2013-01-27 03:12:00,38.6,37.6,30.16,East,90,3.0,8.0,96,0.00,,,0.07,Wunderground v.1.15,2013-01-27 11:12:00,
2013-01-27 03:18:00,38.7,37.7,30.17,East,101,3.0,8.0,96,0.00,,,0.07,Wunderground v.1.15,2013-01-27 11:18:00,
2013-01-27 03:24:00,38.7,37.7,30.17,East,101,2.0,8.0,96,0.00,,,0.08,Wunderground v.1.15,2013-01-27 11:24:00,
2013-01-27 03:30:00,38.8,37.8,30.16,East,101,1.0,8.0,96,0.08,,,0.09,Wunderground v.1.15,2013-01-27 11:30:00,
2013-01-27 03:35:00,38.7,37.7,30.16,East,101,1.0,8.0,96,0.08,,,0.09,Wunderground v.1.15,2013-01-27 11:35:00,
2013-01-27 03:40:00,38.8,37.8,30.17,East,101,2.0,8.0,96,0.05,,,0.09,Wunderground v.1.15,2013-01-27 11:40:00,
2013-01-27 03:46:00,38.9,37.9,30.17,East,101,2.0,8.0,96,0.04,,,0.10,Wunderground v.1.15,2013-01-27 11:46:00,
2013-01-27 03:52:00,38.9,37.9,30.17,East,101,2.0,8.0,96,0.04,,,0.10,Wunderground v.1.15,2013-01-27 11:52:00,
2013-01-27 03:58:00,38.9,37.9,30.17,East,101,1.0,8.0,96,0.04,,,0.10,Wunderground v.1.15,2013-01-27 11:58:00,
2013-01-27 04:03:00,38.9,37.9,30.17,East,101,1.0,8.0,96,0.00,,,0.10,Wunderground v.1.15,2013-01-27 12:03:00,
2013-01-27 04:08:00,38.9,37.9,30.17,ESE,102,3.0,8.0,96,0.00,,,0.10,Wunderground v.1.15,2013-01-27 12:08:00,
2013-01-27 04:14:00,38.8,37.8,30.17,ESE,102,3.0,8.0,96,0.00,,,0.10,Wunderground v.1.15,2013-01-27 12:14:00,
2013-01-27 04:19:00,38.7,37.7,30.16,ESE,102,2.0,8.0,96,0.00,,,0.10,Wunderground v.1.15,2013-01-27 12:19:00,
2013-01-27 04:25:00,38.5,37.5,30.16,ESE,123,4.0,8.0,96,0.00,,,0.10,Wunderground v.1.15,2013-01-27 12:25:00,
2013-01-27 04:31:00,38.4,37.4,30.16,SE,129,5.0,8.0,96,0.00,,,0.10,Wunderground v.1.15,2013-01-27 12:31:00,
2013-01-27 04:36:00,38.3,37.3,30.16,SE,129,3.0,8.0,96,0.00,,,0.10,Wunderground v.1.15,2013-01-27 12:36:00,
2013-01-27 04:41:00,38.2,37.2,30.16,SE,129,3.0,8.0,96,0.00,,,0.10,Wunderground v.1.15,2013-01-27 12:41:00,
2013-01-27 04:46:00,38.2,37.2,30.16,SE,129,2.0,8.0,96,0.00,,,0.10,Wunderground v.1.15,2013-01-27 12:46:00,
2013-01-27 04:51:00,38.2,37.4,30.17,SE,129,1.0,8.0,97,0.00,,,0.11,Wunderground v.1.15,2013-01-27 12:51:00,
2013-01-27 04:57:00,38.3,37.5,30.16,SE,129,1.0,8.0,97,0.19,,,0.12,Wunderground v.1.15,2013-01-27 12:57:00,
2013-01-27 05:03:00,38.6,37.8,30.17,SE,139,4.0,8.0,97,0.10,,,0.13,Wunderground v.1.15,2013-01-27 13:03:00,
2013-01-27 05:09:00,38.9,38.1,30.17,SE,139,5.0,8.0,97,0.08,,,0.14,Wunderground v.1.15,2013-01-27 13:09:00,
2013-01-27 05:14:00,39.1,38.3,30.17,SE,140,4.0,8.0,97,0.06,,,0.14,Wunderground v.1.15,2013-01-27 13:14:00,
2013-01-27 05:20:00,39.0,38.2,30.17,SE,140,3.0,8.0,97,0.04,,,0.14,Wunderground v.1.15,2013-01-27 13:20:00,
2013-01-27 05:25:00,38.9,38.1,30.17,SE,140,3.0,8.0,97,0.00,,,0.14,Wunderground v.1.15,2013-01-27 13:25:00,
2013-01-27 05:31:00,38.9,38.1,30.17,SE,140,2.0,8.0,97,0.00,,,0.14,Wunderground v.1.15,2013-01-27 13:31:00,
2013-01-27 05:37:00,38.8,38.0,30.17,SE,140,2.0,8.0,97,0.00,,,0.14,Wunderground v.1.15,2013-01-27 13:37:00,
2013-01-27 05:42:00,38.6,37.6,30.17,SE,140,2.0,8.0,96,0.00,,,0.14,Wunderground v.1.15,2013-01-27 13:42:00,
2013-01-27 05:47:00,38.5,37.5,30.17,SE,140,3.0,8.0,96,0.00,,,0.14,Wunderground v.1.15,2013-01-27 13:47:00,
2013-01-27 05:53:00,38.4,37.4,30.17,SE,140,3.0,8.0,96,0.00,,,0.15,Wunderground v.1.15,2013-01-27 13:53:00,
2013-01-27 05:59:00,38.5,37.7,30.17,South,173,4.0,8.0,97,0.09,,,0.16,Wunderground v.1.15,2013-01-27 13:59:00,
2013-01-27 06:04:00,38.6,37.8,30.17,SSE,162,5.0,8.0,97,0.09,,,0.16,Wunderground v.1.15,2013-01-27 14:04:00,
2013-01-27 06:10:00,38.5,37.5,30.17,SE,140,5.0,8.0,96,0.05,,,0.16,Wunderground v.1.15,2013-01-27 14:10:00,
2013-01-27 06:15:00,38.4,37.6,30.17,SE,138,4.0,8.0,97,0.04,,,0.16,Wunderground v.1.15,2013-01-27 14:15:00,
2013-01-27 06:21:00,38.4,37.6,30.17,SE,139,2.0,8.0,97,0.00,,,0.16,Wunderground v.1.15,2013-01-27 14:21:00,
2013-01-27 06:27:00,38.3,37.5,30.17,SE,138,3.0,8.0,97,0.00,,,0.16,Wunderground v.1.15,2013-01-27 14:27:00,
2013-01-27 06:32:00,38.3,37.5,30.17,SE,138,3.0,8.0,97,0.00,,,0.16,Wunderground v.1.15,2013-01-27 14:32:00,
2013-01-27 06:37:00,38.2,37.4,30.17,SE,138,2.0,8.0,97,0.00,,,0.16,Wunderground v.1.15,2013-01-27 14:37:00,
2013-01-27 06:42:00,38.2,37.4,30.17,SE,138,2.0,8.0,97,0.00,,,0.16,Wunderground v.1.15,2013-01-27 14:42:00,
2013-01-27 06:48:00,38.2,37.4,30.17,SE,138,3.0,8.0,97,0.00,,,0.16,Wunderground v.1.15,2013-01-27 14:48:00,
2013-01-27 06:54:00,38.0,37.2,30.17,SE,138,4.0,8.0,97,0.00,,,0.16,Wunderground v.1.15,2013-01-27 14:54:00,
2013-01-27 07:00:00,37.9,37.1,30.17,SE,138,3.0,8.0,97,0.00,,,0.16,Wunderground v.1.15,2013-01-27 15:00:00,
2013-01-27 07:05:00,37.7,36.7,30.17,SE,138,2.0,8.0,96,0.00,,,0.16,Wunderground v.1.15,2013-01-27 15:05:00,
2013-01-27 07:11:00,37.6,36.6,30.18,SE,138,1.0,8.0,96,0.00,,,0.16,Wunderground v.1.15,2013-01-27 15:11:00,
2013-01-27 07:16:00,37.4,36.6,30.18,SE,138,2.0,8.0,97,0.00,,,0.16,Wunderground v.1.15,2013-01-27 15:16:00,
2013-01-27 07:22:00,37.3,36.3,30.17,SE,138,2.0,8.0,96,0.00,,,0.16,Wunderground v.1.15,2013-01-27 15:22:00,
2013-01-27 07:28:00,37.2,36.2,30.18,SE,138,1.0,8.0,96,0.00,,,0.16,Wunderground v.1.15,2013-01-27 15:28:00,
2013-01-27 07:33:00,37.1,36.3,30.17,SE,138,1.0,8.0,97,0.00,,,0.16,Wunderground v.1.15,2013-01-27 15:33:00,
2013-01-27 07:39:00,37.1,36.3,30.17,SE,138,2.0,8.0,97,0.00,,,0.16,Wunderground v.1.15,2013-01-27 15:39:00,
2013-01-27 07:45:00,37.1,36.3,30.18,SE,138,4.0,8.0,97,0.00,,,0.16,Wunderground v.1.15,2013-01-27 15:45:00,
2013-01-27 07:50:00,37.2,36.4,30.18,SSE,153,4.0,8.0,97,0.00,,,0.16,Wunderground v.1.15,2013-01-27 15:50:00,
2013-01-27 07:56:00,37.7,36.9,30.19,South,170,4.0,8.0,97,0.00,,,0.17,Wunderground v.1.15,2013-01-27 15:56:00,
2013-01-27 08:02:00,37.9,37.1,30.18,SE,146,5.0,8.0,97,0.10,,,0.18,Wunderground v.1.15,2013-01-27 16:02:00,
2013-01-27 08:07:00,38.0,37.2,30.19,SE,146,4.0,8.0,97,0.09,,,0.18,Wunderground v.1.15,2013-01-27 16:07:00,
2013-01-27 08:13:00,38.0,37.2,30.19,SE,146,3.0,8.0,97,0.05,,,0.18,Wunderground v.1.15,2013-01-27 16:13:00,
2013-01-27 08:19:00,38.0,37.2,30.19,SE,146,3.0,8.0,97,0.00,,,0.18,Wunderground v.1.15,2013-01-27 16:19:00,
2013-01-27 08:24:00,38.1,37.3,30.19,SE,143,4.0,8.0,97,0.00,,,0.18,Wunderground v.1.15,2013-01-27 16:24:00,
2013-01-27 08:29:00,38.1,37.3,30.19,SE,144,4.0,8.0,97,0.00,,,0.18,Wunderground v.1.15,2013-01-27 16:29:00,
2013-01-27 08:35:00,38.0,37.2,30.19,SE,144,4.0,8.0,97,0.00,,,0.18,Wunderground v.1.15,2013-01-27 16:35:00,
2013-01-27 08:40:00,38.0,37.2,30.19,SE,144,5.0,8.0,97,0.00,,,0.18,Wunderground v.1.15,2013-01-27 16:40:00,
2013-01-27 08:45:00,38.0,37.2,30.19,SE,144,4.0,8.0,97,0.00,,,0.18,Wunderground v.1.15,2013-01-27 16:45:00,
2013-01-27 08:50:00,38.1,37.3,30.19,SE,144,4.0,8.0,97,0.00,,,0.18,Wunderground v.1.15,2013-01-27 16:50:00,
2013-01-27 08:56:00,38.4,37.6,30.19,SE,146,4.0,8.0,97,0.00,,,0.18,Wunderground v.1.15,2013-01-27 16:56:00,
2013-01-27 09:02:00,38.6,37.8,30.19,SSE,147,4.0,8.0,97,0.00,,,0.18,Wunderground v.1.15,2013-01-27 17:02:00,
2013-01-27 09:08:00,39.1,38.3,30.20,SSE,147,3.0,8.0,97,0.00,,,0.18,Wunderground v.1.15,2013-01-27 17:08:00,
2013-01-27 09:13:00,39.6,38.8,30.20,SSE,147,3.0,8.0,97,0.00,,,0.18,Wunderground v.1.15,2013-01-27 17:13:00,
2013-01-27 09:18:00,40.0,39.2,30.20,SSE,147,2.0,8.0,97,0.00,,,0.18,Wunderground v.1.15,2013-01-27 17:18:00,
2013-01-27 09:24:00,40.2,39.4,30.20,SE,146,1.0,8.0,97,0.00,,,0.18,Wunderground v.1.15,2013-01-27 17:24:00,
2013-01-27 09:29:00,40.3,39.5,30.20,SE,146,2.0,8.0,97,0.00,,,0.18,Wunderground v.1.15,2013-01-27 17:29:00,
2013-01-27 09:35:00,40.5,39.7,30.20,SE,146,1.0,8.0,97,0.00,,,0.18,Wunderground v.1.15,2013-01-27 17:35:00,
2013-01-27 09:41:00,40.7,39.9,30.20,SE,146,2.0,8.0,97,0.00,,,0.18,Wunderground v.1.15,2013-01-27 17:41:00,
2013-01-27 09:47:00,40.8,40.0,30.20,SE,146,3.0,8.0,97,0.00,,,0.18,Wunderground v.1.15,2013-01-27 17:47:00,
2013-01-27 09:52:00,41.1,40.3,30.21,SE,146,3.0,8.0,97,0.00,,,0.18,Wunderground v.1.15,2013-01-27 17:52:00,
2013-01-27 09:58:00,41.6,40.8,30.21,SE,146,3.0,8.0,97,0.00,,,0.18,Wunderground v.1.15,2013-01-27 17:58:00,
2013-01-27 10:03:00,41.7,40.9,30.22,SE,146,3.0,8.0,97,0.00,,,0.18,Wunderground v.1.15,2013-01-27 18:03:00,
2013-01-27 10:08:00,41.8,41.0,30.22,SE,146,2.0,8.0,97,0.00,,,0.18,Wunderground v.1.15,2013-01-27 18:08:00,
2013-01-27 10:13:00,42.0,41.2,30.22,SE,146,2.0,8.0,97,0.00,,,0.18,Wunderground v.1.15,2013-01-27 18:13:00,
2013-01-27 10:18:00,42.5,41.7,30.22,SE,146,2.0,8.0,97,0.00,,,0.18,Wunderground v.1.15,2013-01-27 18:18:00,
2013-01-27 10:24:00,42.2,41.4,30.22,South,171,3.0,8.0,97,0.00,,,0.18,Wunderground v.1.15,2013-01-27 18:24:00,
2013-01-27 10:29:00,42.1,41.3,30.22,South,171,4.0,8.0,97,0.00,,,0.18,Wunderground v.1.15,2013-01-27 18:29:00,
2013-01-27 10:35:00,42.1,41.0,30.22,South,171,4.0,8.0,96,0.00,,,0.18,Wunderground v.1.15,2013-01-27 18:35:00,
2013-01-27 10:41:00,41.9,40.8,30.22,South,188,5.0,8.0,96,0.00,,,0.18,Wunderground v.1.15,2013-01-27 18:41:00,
2013-01-27 10:47:00,41.9,40.8,30.22,South,185,6.0,9.0,96,0.00,,,0.18,Wunderground v.1.15,2013-01-27 18:47:00,
2013-01-27 10:52:00,42.3,41.2,30.22,South,187,6.0,8.0,96,0.00,,,0.18,Wunderground v.1.15,2013-01-27 18:52:00,
2013-01-27 10:57:00,42.3,41.0,30.22,South,175,6.0,8.0,95,0.00,,,0.18,Wunderground v.1.15,2013-01-27 18:57:00,
2013-01-27 11:03:00,42.5,41.2,30.22,South,187,5.0,8.0,95,0.00,,,0.18,Wunderground v.1.15,2013-01-27 19:03:00,
2013-01-27 11:08:00,42.6,41.3,30.22,South,189,5.0,8.0,95,0.00,,,0.18,Wunderground v.1.15,2013-01-27 19:08:00,
2013-01-27 11:14:00,42.5,41.2,30.22,South,190,5.0,8.0,95,0.00,,,0.18,Wunderground v.1.15,2013-01-27 19:14:00,
2013-01-27 11:20:00,42.5,40.9,30.22,South,189,5.0,5.0,94,0.00,,,0.18,Wunderground v.1.15,2013-01-27 19:20:00,
2013-01-27 11:26:00,42.6,41.0,30.22,SSW,200,5.0,11.0,94,0.00,,,0.18,Wunderground v.1.15,2013-01-27 19:26:00,
2013-01-27 11:32:00,42.8,41.2,30.22,South,188,6.0,11.0,94,0.00,,,0.18,Wunderground v.1.15,2013-01-27 19:32:00,
2013-01-27 11:37:00,42.8,41.2,30.22,South,181,7.0,11.0,94,0.00,,,0.18,Wunderground v.1.15,2013-01-27 19:37:00,
2013-01-27 11:42:00,43.0,41.4,30.22,South,183,7.0,10.0,94,0.00,,,0.18,Wunderground v.1.15,2013-01-27 19:42:00,
2013-01-27 11:48:00,43.0,41.1,30.22,SSW,197,6.0,10.0,93,0.00,,,0.18,Wunderground v.1.15,2013-01-27 19:48:00,
2013-01-27 11:54:00,43.0,41.1,30.22,South,186,6.0,8.0,93,0.00,,,0.18,Wunderground v.1.15,2013-01-27 19:54:00,
2013-01-27 12:00:00,43.1,41.2,30.22,SSW,195,6.0,8.0,93,0.00,,,0.18,Wunderground v.1.15,2013-01-27 20:00:00,
2013-01-27 12:06:00,43.2,41.3,30.22,SSW,209,7.0,8.0,93,0.00,,,0.18,Wunderground v.1.15,2013-01-27 20:06:00,
2013-01-27 12:11:00,43.2,41.3,30.22,South,174,7.0,8.0,93,0.00,,,0.18,Wunderground v.1.15,2013-01-27 20:11:00,
2013-01-27 12:17:00,43.4,41.5,30.21,SW,224,6.0,8.0,93,0.00,,,0.18,Wunderground v.1.15,2013-01-27 20:17:00,
2013-01-27 12:23:00,43.5,41.3,30.20,South,189,7.0,10.0,92,0.00,,,0.18,Wunderground v.1.15,2013-01-27 20:23:00,
2013-01-27 12:29:00,43.3,41.1,30.21,SSW,192,8.0,10.0,92,0.00,,,0.18,Wunderground v.1.15,2013-01-27 20:29:00,
2013-01-27 12:35:00,43.5,41.6,30.20,SSW,203,6.0,8.0,93,0.00,,,0.18,Wunderground v.1.15,2013-01-27 20:35:00,
2013-01-27 12:40:00,43.9,41.7,30.20,SW,224,6.0,8.0,92,0.00,,,0.18,Wunderground v.1.15,2013-01-27 20:40:00,
2013-01-27 12:45:00,44.0,41.5,30.20,SW,217,8.0,11.0,91,0.00,,,0.18,Wunderground v.1.15,2013-01-27 20:45:00,
2013-01-27 12:51:00,44.3,41.6,30.20,WSW,238,7.0,11.0,90,0.00,,,0.18,Wunderground v.1.15,2013-01-27 20:51:00,
2013-01-27 12:57:00,44.2,41.7,30.19,SSW,200,7.0,11.0,91,0.00,,,0.18,Wunderground v.1.15,2013-01-27 20:57:00,
2013-01-27 13:03:00,43.9,41.4,30.19,SSW,200,7.0,11.0,91,0.00,,,0.18,Wunderground v.1.15,2013-01-27 21:03:00,
2013-01-27 13:08:00,43.8,41.1,30.19,SSW,213,7.0,11.0,90,0.00,,,0.18,Wunderground v.1.15,2013-01-27 21:08:00,
2013-01-27 13:13:00,43.9,41.2,30.19,SSW,203,8.0,14.0,90,0.00,,,0.18,Wunderground v.1.15,2013-01-27 21:13:00,
2013-01-27 13:19:00,44.1,41.6,30.18,SSW,205,8.0,14.0,91,0.00,,,0.18,Wunderground v.1.15,2013-01-27 21:19:00,
2013-01-27 13:25:00,44.1,41.4,30.18,South,190,8.0,13.0,90,0.00,,,0.18,Wunderground v.1.15,2013-01-27 21:25:00,
2013-01-27 13:30:00,44.1,41.6,30.18,SSW,194,8.0,8.0,91,0.00,,,0.18,Wunderground v.1.15,2013-01-27 21:30:00,
2013-01-27 13:36:00,44.2,41.7,30.18,SSW,206,8.0,12.0,91,0.00,,,0.18,Wunderground v.1.15,2013-01-27 21:36:00,
2013-01-27 13:41:00,44.1,41.6,30.18,SSW,197,8.0,8.0,91,0.00,,,0.18,Wunderground v.1.15,2013-01-27 21:41:00,
2013-01-27 13:47:00,44.0,41.5,30.18,SSW,196,7.0,9.0,91,0.00,,,0.18,Wunderground v.1.15,2013-01-27 21:47:00,
2013-01-27 13:53:00,43.8,41.1,30.17,SSW,193,8.0,12.0,90,0.00,,,0.18,Wunderground v.1.15,2013-01-27 21:53:00,
2013-01-27 13:58:00,43.6,41.1,30.18,SSW,199,8.0,12.0,91,0.00,,,0.19,Wunderground v.1.15,2013-01-27 21:58:00,
2013-01-27 14:04:00,43.1,40.7,30.17,SSW,204,9.0,11.0,91,0.00,,,0.19,Wunderground v.1.15,2013-01-27 22:04:00,
2013-01-27 14:09:00,43.2,41.0,30.17,SW,218,10.0,11.0,92,0.00,,,0.19,Wunderground v.1.15,2013-01-27 22:09:00,
2013-01-27 14:14:00,43.3,41.1,30.17,SSW,211,9.0,11.0,92,0.00,,,0.19,Wunderground v.1.15,2013-01-27 22:14:00,
2013-01-27 14:20:00,43.1,40.9,30.17,SW,215,8.0,8.0,92,0.00,,,0.20,Wunderground v.1.15,2013-01-27 22:20:00,
2013-01-27 14:26:00,43.0,40.8,30.17,SW,229,8.0,11.0,92,0.00,,,0.20,Wunderground v.1.15,2013-01-27 22:26:00,
2013-01-27 14:32:00,43.0,40.8,30.17,SW,214,8.0,8.0,92,0.00,,,0.20,Wunderground v.1.15,2013-01-27 22:32:00,
2013-01-27 14:38:00,43.3,41.4,30.17,SSW,213,7.0,9.0,93,0.00,,,0.20,Wunderground v.1.15,2013-01-27 22:38:00,
2013-01-27 14:43:00,43.4,41.5,30.17,SSW,206,6.0,8.0,93,0.00,,,0.20,Wunderground v.1.15,2013-01-27 22:43:00,
2013-01-27 14:49:00,43.3,41.4,30.17,SSW,194,6.0,8.0,93,0.00,,,0.20,Wunderground v.1.15,2013-01-27 22:49:00,
2013-01-27 14:55:00,43.2,41.3,30.17,SSW,200,7.0,11.0,93,0.00,,,0.20,Wunderground v.1.15,2013-01-27 22:55:00,
2013-01-27 15:00:00,43.2,41.3,30.17,South,183,8.0,8.0,93,0.00,,,0.21,Wunderground v.1.15,2013-01-27 23:00:00,
2013-01-27 15:06:00,43.0,41.1,30.17,South,183,8.0,10.0,93,0.00,,,0.21,Wunderground v.1.15,2013-01-27 23:06:00,
2013-01-27 15:11:00,43.0,41.1,30.17,South,185,8.0,11.0,93,0.00,,,0.21,Wunderground v.1.15,2013-01-27 23:11:00,
2013-01-27 15:17:00,42.9,41.0,30.17,SW,219,8.0,11.0,93,0.04,,,0.22,Wunderground v.1.15,2013-01-27 23:17:00,
2013-01-27 15:22:00,43.2,41.3,30.17,SSW,209,9.0,9.0,93,0.04,,,0.22,Wunderground v.1.15,2013-01-27 23:22:00,
2013-01-27 15:28:00,43.1,41.2,30.17,SW,225,9.0,11.0,93,0.04,,,0.22,Wunderground v.1.15,2013-01-27 23:28:00,
2013-01-27 15:33:00,42.8,40.6,30.17,SW,228,8.0,10.0,92,0.00,,,0.22,Wunderground v.1.15,2013-01-27 23:33:00,
2013-01-27 15:39:00,42.8,40.9,30.17,SSW,200,7.0,10.0,93,0.19,,,0.24,Wunderground v.1.15,2013-01-27 23:39:00,
2013-01-27 15:44:00,42.5,40.6,30.17,SW,226,8.0,13.0,93,0.23,,,0.26,Wunderground v.1.15,2013-01-27 23:44:00,
2013-01-27 15:49:00,42.5,40.6,30.17,SW,234,10.0,13.0,93,0.09,,,0.26,Wunderground v.1.15,2013-01-27 23:49:00,
2013-01-27 15:55:00,42.3,40.1,30.17,WSW,238,10.0,11.0,92,0.05,,,0.26,Wunderground v.1.15,2013-01-27 23:55:00,
2013-01-27 16:00:00,42.8,40.9,30.17,SSW,205,9.0,9.0,93,0.00,,,0.26,Wunderground v.1.15,2013-01-28 00:00:00,
2013-01-27 16:06:00,42.6,40.4,30.16,SW,228,8.0,12.0,92,0.00,,,0.27,Wunderground v.1.15,2013-01-28 00:06:00,
2013-01-27 16:11:00,42.4,40.0,30.17,SW,229,8.0,9.0,91,0.00,,,0.27,Wunderground v.1.15,2013-01-28 00:11:00,
2013-01-27 16:17:00,42.7,40.5,30.17,SSW,192,8.0,9.0,92,0.00,,,0.27,Wunderground v.1.15,2013-01-28 00:17:00,
2013-01-27 16:23:00,42.8,40.6,30.16,SSW,207,7.0,9.0,92,0.00,,,0.27,Wunderground v.1.15,2013-01-28 00:23:00,
2013-01-27 16:29:00,42.6,40.4,30.16,SSW,201,7.0,9.0,92,0.00,,,0.27,Wunderground v.1.15,2013-01-28 00:29:00,
2013-01-27 16:35:00,42.7,40.5,30.16,SW,223,6.0,8.0,92,0.00,,,0.27,Wunderground v.1.15,2013-01-28 00:35:00,
2013-01-27 16:40:00,42.6,40.4,30.16,SSW,205,7.0,8.0,92,0.00,,,0.28,Wunderground v.1.15,2013-01-28 00:40:00,
2013-01-27 16:46:00,42.6,40.4,30.16,SSW,204,8.0,9.0,92,0.00,,,0.28,Wunderground v.1.15,2013-01-28 00:46:00,
2013-01-27 16:52:00,42.3,40.1,30.16,SSW,194,6.0,8.0,92,0.00,,,0.28,Wunderground v.1.15,2013-01-28 00:52:00,
2013-01-27 16:57:00,42.1,39.9,30.15,South,188,5.0,8.0,92,0.00,,,0.28,Wunderground v.1.15,2013-01-28 00:57:00,
2013-01-27 17:02:00,42.1,39.9,30.15,South,186,5.0,8.0,92,0.00,,,0.28,Wunderground v.1.15,2013-01-28 01:02:00,
2013-01-27 17:08:00,42.2,40.3,30.15,SSE,165,5.0,8.0,93,0.00,,,0.28,Wunderground v.1.15,2013-01-28 01:08:00,
2013-01-27 17:14:00,42.2,40.3,30.15,South,189,4.0,8.0,93,0.00,,,0.29,Wunderground v.1.15,2013-01-28 01:14:00,
2013-01-27 17:20:00,42.5,40.6,30.15,SSW,206,5.0,8.0,93,0.00,,,0.29,Wunderground v.1.15,2013-01-28 01:20:00,
2013-01-27 17:25:00,43.0,41.4,30.15,SW,222,6.0,8.0,94,0.00,,,0.29,Wunderground v.1.15,2013-01-28 01:25:00,
2013-01-27 17:30:00,43.2,41.3,30.15,SW,229,8.0,11.0,93,0.00,,,0.30,Wunderground v.1.15,2013-01-28 01:30:00,
2013-01-27 17:36:00,43.2,41.0,30.15,SW,221,9.0,11.0,92,0.00,,,0.30,Wunderground v.1.15,2013-01-28 01:36:00,
2013-01-27 17:42:00,43.3,41.1,30.15,SW,223,9.0,14.0,92,0.06,,,0.31,Wunderground v.1.15,2013-01-28 01:42:00,
2013-01-27 17:48:00,42.8,40.1,30.15,WSW,250,10.0,14.0,90,0.06,,,0.31,Wunderground v.1.15,2013-01-28 01:48:00,
2013-01-27 17:53:00,43.0,40.6,30.15,WSW,252,11.0,14.0,91,0.07,,,0.32,Wunderground v.1.15,2013-01-28 01:53:00,
2013-01-27 17:59:00,43.1,40.9,30.15,WSW,248,12.0,16.0,92,0.09,,,0.33,Wunderground v.1.15,2013-01-28 01:59:00,
2013-01-27 18:05:00,43.2,41.0,30.15,SW,236,10.0,15.0,92,0.08,,,0.34,Wunderground v.1.15,2013-01-28 02:05:00,
2013-01-27 18:10:00,43.3,41.1,30.15,WSW,252,9.0,11.0,92,0.08,,,0.34,Wunderground v.1.15,2013-01-28 02:10:00,
2013-01-27 18:15:00,43.3,41.1,30.15,WSW,238,10.0,11.0,92,0.05,,,0.34,Wunderground v.1.15,2013-01-28 02:15:00,
2013-01-27 18:21:00,43.0,40.6,30.15,WSW,254,10.0,12.0,91,0.04,,,0.35,Wunderground v.1.15,2013-01-28 02:21:00,
2013-01-27 18:27:00,43.1,40.9,30.15,WSW,240,11.0,14.0,92,0.04,,,0.35,Wunderground v.1.15,2013-01-28 02:27:00,
2013-01-27 18:33:00,43.1,40.7,30.15,WSW,242,10.0,11.0,91,0.04,,,0.35,Wunderground v.1.15,2013-01-28 02:33:00,
2013-01-27 18:38:00,43.1,40.9,30.15,SSW,201,8.0,11.0,92,0.04,,,0.36,Wunderground v.1.15,2013-01-28 02:38:00,
2013-01-27 18:44:00,43.0,40.8,30.15,SW,228,8.0,10.0,92,0.04,,,0.36,Wunderground v.1.15,2013-01-28 02:44:00,
2013-01-27 18:49:00,42.9,40.7,30.15,SW,221,8.0,13.0,92,0.05,,,0.37,Wunderground v.1.15,2013-01-28 02:49:00,
2013-01-27 18:54:00,42.8,40.6,30.14,SW,225,9.0,10.0,92,0.05,,,0.37,Wunderground v.1.15,2013-01-28 02:54:00,
2013-01-27 19:00:00,42.7,40.5,30.14,SSW,211,8.0,8.0,92,0.05,,,0.38,Wunderground v.1.15,2013-01-28 03:00:00,
2013-01-27 19:06:00,42.7,40.8,30.14,SW,225,7.0,8.0,93,0.05,,,0.38,Wunderground v.1.15,2013-01-28 03:06:00,
2013-01-27 19:12:00,42.9,41.0,30.14,SW,225,6.0,8.0,93,0.04,,,0.38,Wunderground v.1.15,2013-01-28 03:12:00,
2013-01-27 19:18:00,42.9,41.0,30.14,SSW,208,6.0,8.0,93,0.04,,,0.39,Wunderground v.1.15,2013-01-28 03:18:00,
2013-01-27 19:24:00,42.9,41.3,30.14,South,170,6.0,8.0,94,0.04,,,0.39,Wunderground v.1.15,2013-01-28 03:24:00,
2013-01-27 19:29:00,42.6,40.7,30.14,SSW,197,6.0,10.0,93,0.05,,,0.40,Wunderground v.1.15,2013-01-28 03:29:00,
2013-01-27 19:35:00,42.5,40.6,30.14,SSW,205,6.0,8.0,93,0.09,,,0.41,Wunderground v.1.15,2013-01-28 03:35:00,
2013-01-27 19:41:00,42.3,40.7,30.14,SSW,195,5.0,6.0,94,0.07,,,0.42,Wunderground v.1.15,2013-01-28 03:41:00,
2013-01-27 19:46:00,42.3,40.7,30.14,South,173,5.0,8.0,94,0.07,,,0.42,Wunderground v.1.15,2013-01-28 03:46:00,
2013-01-27 19:52:00,42.3,40.7,30.14,SSW,192,6.0,8.0,94,0.08,,,0.43,Wunderground v.1.15,2013-01-28 03:52:00,
2013-01-27 19:57:00,42.5,40.9,30.14,South,187,6.0,8.0,94,0.06,,,0.43,Wunderground v.1.15,2013-01-28 03:57:00,
2013-01-27 20:03:00,42.2,40.6,30.14,South,173,6.0,11.0,94,0.05,,,0.44,Wunderground v.1.15,2013-01-28 04:03:00,
2013-01-27 20:09:00,42.0,40.7,30.14,South,184,6.0,11.0,95,0.12,,,0.45,Wunderground v.1.15,2013-01-28 04:09:00,
2013-01-27 20:14:00,42.0,40.7,30.14,South,189,6.0,9.0,95,0.07,,,0.46,Wunderground v.1.15,2013-01-28 04:14:00,
2013-01-27 20:20:00,41.9,40.6,30.14,South,184,6.0,8.0,95,0.07,,,0.46,Wunderground v.1.15,2013-01-28 04:20:00,
2013-01-27 20:25:00,42.0,40.7,30.13,South,190,6.0,8.0,95,0.05,,,0.46,Wunderground v.1.15,2013-01-28 04:25:00,
2013-01-27 20:31:00,42.2,41.1,30.13,SW,215,7.0,12.0,96,0.00,,,0.46,Wunderground v.1.15,2013-01-28 04:31:00,
2013-01-27 20:37:00,42.3,41.2,30.13,SSW,212,7.0,12.0,96,0.12,,,0.47,Wunderground v.1.15,2013-01-28 04:37:00,
2013-01-27 20:43:00,42.0,40.7,30.14,South,188,7.0,9.0,95,0.10,,,0.48,Wunderground v.1.15,2013-01-28 04:43:00,
2013-01-27 20:49:00,42.3,41.2,30.14,South,189,5.0,9.0,96,0.05,,,0.49,Wunderground v.1.15,2013-01-28 04:49:00,
2013-01-27 20:54:00,42.9,41.8,30.14,SSW,194,4.0,8.0,96,0.05,,,0.49,Wunderground v.1.15,2013-01-28 04:54:00,
2013-01-27 20:59:00,43.2,42.1,30.14,SSW,194,3.0,8.0,96,0.19,,,0.51,Wunderground v.1.15,2013-01-28 04:59:00,
2013-01-27 21:01:00,43.3,42.2,30.14,SSW,194,3.0,8.0,96,0.19,,,0.51,Wunderground v.1.15,2013-01-28 05:01:00,
2013-01-27 21:04:00,43.6,42.5,30.14,SSW,196,3.0,8.0,96,0.11,,,0.51,Wunderground v.1.15,2013-01-28 05:04:00,
2013-01-27 21:05:00,43.6,42.5,30.14,West,267,3.0,8.0,96,0.09,,,0.51,Wunderground v.1.15,2013-01-28 05:05:00,
2013-01-27 21:06:00,43.7,42.6,30.14,WNW,284,3.0,8.0,96,0.08,,,0.51,Wunderground v.1.15,2013-01-28 05:06:00,
2013-01-27 21:12:00,44.1,43.0,30.14,WNW,302,4.0,8.0,96,0.13,,,0.53,Wunderground v.1.15,2013-01-28 05:12:00,
2013-01-27 21:17:00,44.0,42.9,30.14,WNW,298,3.0,8.0,96,0.06,,,0.53,Wunderground v.1.15,2013-01-28 05:17:00,
2013-01-27 21:23:00,44.1,43.0,30.14,NW,319,4.0,8.0,96,0.04,,,0.53,Wunderground v.1.15,2013-01-28 05:23:00,
2013-01-27 21:29:00,44.4,43.3,30.14,NW,317,5.0,8.0,96,0.00,,,0.53,Wunderground v.1.15,2013-01-28 05:29:00,
2013-01-27 21:34:00,44.7,43.6,30.14,NW,319,6.0,10.0,96,0.00,,,0.53,Wunderground v.1.15,2013-01-28 05:34:00,
2013-01-27 21:39:00,45.0,43.9,30.14,NW,315,8.0,10.0,96,0.00,,,0.53,Wunderground v.1.15,2013-01-28 05:39:00,
2013-01-27 21:45:00,45.1,44.0,30.14,NW,313,8.0,13.0,96,0.00,,,0.53,Wunderground v.1.15,2013-01-28 05:45:00,
2013-01-27 21:50:00,44.8,43.7,30.15,North,350,10.0,10.0,96,0.00,,,0.54,Wunderground v.1.15,2013-01-28 05:50:00,
2013-01-27 21:56:00,44.3,43.0,30.15,NNE,24,7.0,10.0,95,0.00,,,0.54,Wunderground v.1.15,2013-01-28 05:56:00,
2013-01-27 22:01:00,44.1,42.8,30.15,North,355,4.0,8.0,95,0.00,,,0.54,Wunderground v.1.15,2013-01-28 06:01:00,
2013-01-27 22:06:00,44.1,42.8,30.15,North,355,4.0,8.0,95,0.00,,,0.54,Wunderground v.1.15,2013-01-28 06:06:00,
2013-01-27 22:12:00,44.7,43.4,30.16,NNW,346,7.0,13.0,95,0.00,,,0.54,Wunderground v.1.15,2013-01-28 06:12:00,
2013-01-27 22:18:00,44.9,43.3,30.16,North,360,11.0,18.0,94,0.00,,,0.55,Wunderground v.1.15,2013-01-28 06:18:00,
2013-01-27 22:23:00,44.3,42.4,30.16,NNW,342,12.0,13.0,93,0.00,,,0.55,Wunderground v.1.15,2013-01-28 06:23:00,
2013-01-27 22:28:00,44.0,42.1,30.16,North,350,11.0,13.0,93,0.10,,,0.56,Wunderground v.1.15,2013-01-28 06:28:00,
2013-01-27 22:34:00,44.2,42.6,30.16,NNW,343,9.0,11.0,94,0.06,,,0.56,Wunderground v.1.15,2013-01-28 06:34:00,
2013-01-27 22:40:00,44.7,43.1,30.16,North,349,8.0,8.0,94,0.04,,,0.56,Wunderground v.1.15,2013-01-28 06:40:00,
2013-01-27 22:45:00,44.8,42.9,30.16,NNW,340,8.0,8.0,93,0.00,,,0.56,Wunderground v.1.15,2013-01-28 06:45:00,
2013-01-27 22:51:00,45.0,43.4,30.16,NNW,347,8.0,14.0,94,0.00,,,0.57,Wunderground v.1.15,2013-01-28 06:51:00,
2013-01-27 22:56:00,44.4,42.5,30.16,North,355,10.0,14.0,93,0.16,,,0.58,Wunderground v.1.15,2013-01-28 06:56:00,
2013-01-27 23:02:00,44.8,43.2,30.16,North,355,8.0,9.0,94,0.06,,,0.58,Wunderground v.1.15,2013-01-28 07:02:00,
2013-01-27 23:08:00,45.2,43.3,30.16,NNW,330,7.0,13.0,93,0.04,,,0.58,Wunderground v.1.15,2013-01-28 07:08:00,
2013-01-27 23:14:00,45.4,43.2,30.16,NNW,332,10.0,15.0,92,0.00,,,0.58,Wunderground v.1.15,2013-01-28 07:14:00,
2013-01-27 23:20:00,45.3,42.8,30.17,NNW,337,11.0,11.0,91,0.00,,,0.58,Wunderground v.1.15,2013-01-28 07:20:00,
2013-01-27 23:25:00,45.4,42.3,30.17,NNW,340,10.0,12.0,89,0.00,,,0.58,Wunderground v.1.15,2013-01-28 07:25:00,
2013-01-27 23:30:00,45.6,42.8,30.17,NNW,342,10.0,10.0,90,0.00,,,0.58,Wunderground v.1.15,2013-01-28 07:30:00,
2013-01-27 23:36:00,45.8,43.0,30.17,NNW,327,9.0,14.0,90,0.00,,,0.58,Wunderground v.1.15,2013-01-28 07:36:00,
2013-01-27 23:42:00,45.8,43.0,30.17,NNW,340,9.0,10.0,90,0.00,,,0.58,Wunderground v.1.15,2013-01-28 07:42:00,
2013-01-27 23:48:00,45.5,42.2,30.17,NNW,327,11.0,17.0,88,0.00,,,0.58,Wunderground v.1.15,2013-01-28 07:48:00,
2013-01-27 23:54:00,44.5,41.5,30.17,NW,323,13.0,19.0,89,0.00,,,0.58,Wunderground v.1.15,2013-01-28 07:54:00,
2013-01-27 23:59:00,44.2,41.7,30.17,NNW,344,12.0,19.0,91,0.00,,,0.58,Wunderground v.1.15,2013-01-28 07:59:00,